Barkersville, South Carolina
Current Conditions -  °F | °C
As of 5:56 AM on Friday 28 Nov 2014 (Local Time) from KNBC Reporting Station
Clear Clear  
Wind Chill: 29°   Ceiling: Unl
Heat Index: 36°   Visibility: 10mi
Dew Point: 30°   Wind: 9mph
Humidity: 79%   Direction: 340°NNW
Pressure: 30.34"   Gusts: NA
Location:  32.6221°N, 81.0484°W
Report Text: KNBC 281056Z AUTO 34008KT 10SM CLR 02/M01 A3034 RMK AO2 SLP276 T00221011
Loading
Personal Weather Stations






























Interactive Weather Map New forecast layout! Learn more

10-Day Weather Forecast

Advertisements
Track Severe Weather on mobile